Terminal Aerodrome Forecast
Issued by NWS

Home | Current Version | Previous Version | Text Only | Print | Product List | Glossary On
Versions: 1 2 3 4 5 6 7 8 9 10 11 12 13 14 15 16 17 18 19 20 21 22
000
FTUS42 KJAX 060205 AAA
TAFCRG
TAF AMD
KCRG 060205Z 0602/0624 04010KT P6SM VCSH SCT015 BKN070 BKN200
      TEMPO 0604/0608 5SM SHRA BR BKN015 OVC050
     FM061000 04007KT P6SM VCSH SCT015 BKN030 OVC200
     FM061400 03015G26KT P6SM VCSH SCT015 BKN030 BKN100
     FM062300 01013G20KT P6SM VCSH SCT015 BKN030 BKN070=

USA.gov is the U.S. government's official web portal to all federal, state and local government web resources and services.